Time;durP1;ratioP1;P1;durP2;ratioP2;P2;SDS_P1;SDS_P2;PMS_P1;PMS_P2;Temp;Humidity;BMP_temperature;BMP_pressure;BME280_temperature;BME280_humidity;BME280_pressure;Samples;Min_cycle;Max_cycle;Signal;HPM_P1;HPM_P2
2023/11/19 00:01:57;;;;;;;12.38;4.90;;;4.00;99.90;;;2.45;100.00;101126.22;4981708;28;20596;-82
2023/11/19 00:07:52;;;;;;;12.37;6.47;;;4.00;99.90;;;2.44;100.00;101114.13;4920494;28;20138;-81
2023/11/19 00:10:18;;;;;;;13.00;5.55;;;4.00;99.90;;;2.43;100.00;101117.56;4959942;28;20062;-82
2023/11/19 00:15:36;;;;;;;10.45;5.55;;;4.00;99.90;;;2.43;100.00;101095.94;5009427;23;20052;-81
2023/11/19 00:18:28;;;;;;;11.43;6.25;;;4.00;99.90;;;2.50;100.00;101083.75;4970273;28;20125;-82
2023/11/19 00:20:57;;;;;;;11.80;6.55;;;;;;;2.52;100.00;101082.84;4880794;28;20050;-82
2023/11/19 00:23:39;;;;;;;11.38;5.57;;;4.00;99.90;;;2.49;100.00;101072.50;4917097;28;20079;-82
2023/11/19 00:26:51;;;;;;;10.32;5.53;;;4.00;99.90;;;2.51;100.00;101046.50;4934679;29;20043;-82
2023/11/19 00:29:18;;;;;;;9.93;5.57;;;4.10;99.90;;;2.43;100.00;101041.34;4868524;29;20104;-81
2023/11/19 00:31:50;;;;;;;12.02;5.72;;;;;;;2.49;100.00;101046.50;5020196;23;20044;-84
2023/11/19 00:34:17;;;;;;;12.90;6.03;;;4.10;99.90;;;2.53;100.00;101039.53;5012416;28;20102;-83
2023/11/19 00:36:45;;;;;;;10.95;5.53;;;4.10;99.90;;;2.52;100.00;101036.06;4972841;28;20052;-84
2023/11/19 00:39:17;;;;;;;10.70;4.85;;;;;;;2.50;100.00;101031.75;4968471;28;20043;-84
2023/11/19 00:41:46;;;;;;;14.93;6.95;;;4.10;99.90;;;2.54;100.00;101025.66;4983959;28;20042;-86
2023/11/19 00:44:12;;;;;;;14.40;7.85;;;;;;;2.58;100.00;101019.56;4965892;28;20035;-83
2023/11/19 00:47:05;;;;;;;13.65;7.32;;;4.10;99.90;;;2.61;100.00;101020.41;4970586;28;20205;-82
2023/11/19 00:49:40;;;;;;;12.18;6.20;;;4.10;99.90;;;2.59;100.00;101018.66;4939359;28;20044;-84
2023/11/19 00:52:06;;;;;;;15.40;8.15;;;4.10;99.90;;;2.59;100.00;101008.28;4956723;28;20045;-83
2023/11/19 00:54:34;;;;;;;14.98;7.25;;;4.10;99.90;;;2.57;100.00;101003.09;4967113;28;20039;-83
2023/11/19 00:57:01;;;;;;;13.13;7.65;;;4.10;99.90;;;2.60;100.00;100997.88;4945019;28;20157;-83
2023/11/19 00:59:36;;;;;;;17.17;6.22;;;4.10;99.90;;;2.59;100.00;100987.47;4944692;28;20045;-84
2023/11/19 01:02:03;;;;;;;16.25;9.48;;;;;;;2.65;100.00;100990.88;4969805;28;20029;-85
2023/11/19 01:04:39;;;;;;;18.45;8.73;;;4.20;99.90;;;2.61;100.00;100985.72;4991140;28;20670;-82
2023/11/19 01:07:05;;;;;;;15.15;8.52;;;4.20;99.90;;;2.60;100.00;100968.41;4921384;28;20052;-83
2023/11/19 01:09:44;;;;;;;;;;;;;;;;;;;;;
2023/11/19 01:12:10;;;;;;;13.68;6.85;;;4.10;99.90;;;2.48;100.00;100966.78;4965172;28;20497;-83
2023/11/19 01:14:36;;;;;;;18.55;8.55;;;4.10;99.90;;;2.54;100.00;100961.53;4915760;28;20034;-83
2023/11/19 01:17:09;;;;;;;18.20;9.55;;;;;;;2.59;100.00;100951.06;4967815;28;20038;-85
2023/11/19 01:19:41;;;;;;;16.27;7.63;;;;;;;2.54;100.00;100951.13;4976668;28;20495;-84
2023/11/19 01:22:19;;;;;;;16.23;8.93;;;4.10;99.90;;;2.58;100.00;100958.03;4953165;28;22454;-83
2023/11/19 01:24:45;;;;;;;18.27;9.27;;;4.10;99.90;;;2.58;100.00;100938.97;4972120;28;20087;-83
2023/11/19 01:27:17;;;;;;;23.25;8.82;;;;;;;2.60;100.00;100939.81;4907723;28;20109;-84
2023/11/19 01:29:46;;;;;;;16.48;9.10;;;4.20;99.90;;;2.58;100.00;100920.78;4980461;28;20052;-85
2023/11/19 01:32:37;;;;;;;17.30;9.18;;;4.20;99.90;;;2.64;100.00;100929.38;4970217;28;20074;-84
2023/11/19 01:35:06;;;;;;;20.92;8.80;;;;;;;2.60;100.00;100922.47;4929030;28;20038;-85
2023/11/19 01:37:32;;;;;;;18.05;9.63;;;;;;;2.60;100.00;100930.28;4984734;28;20071;-85
2023/11/19 01:40:10;;;;;;;17.83;8.45;;;4.20;99.90;;;2.61;100.00;100925.94;4992590;28;20142;-83
2023/11/19 01:42:59;;;;;;;20.92;8.85;;;;;;;2.66;100.00;100917.22;4976558;28;20102;-83
2023/11/19 01:45:30;;;;;;;16.33;8.68;;;4.20;99.90;;;2.64;100.00;100910.31;4984855;28;20037;-85
2023/11/19 01:50:47;;;;;;;17.38;8.65;;;;;;;2.64;100.00;100890.38;4974622;28;20041;-83
2023/11/19 01:53:16;;;;;;;17.02;8.88;;;;;;;2.70;100.00;100876.44;5012910;28;20184;-84
2023/11/19 01:55:49;;;;;;;16.15;9.30;;;;;;;2.72;100.00;100866.00;5008301;28;20048;-86
2023/11/19 01:58:19;;;;;;;17.67;8.88;;;4.30;99.90;;;2.75;100.00;100860.78;5019984;28;20040;-83
2023/11/19 02:00:54;;;;;;;20.25;8.48;;;;;;;2.78;100.00;100847.72;4955800;28;20984;-85
2023/11/19 02:03:21;;;;;;;16.13;8.53;;;4.30;99.90;;;2.79;100.00;100826.06;4953102;28;20078;-84
2023/11/19 02:05:49;;;;;;;17.70;9.65;;;4.30;99.90;;;2.84;100.00;100824.25;4981844;28;20846;-83
2023/11/19 02:08:41;;;;;;;13.05;6.97;;;;;;;2.80;100.00;100817.38;4956265;28;20133;-85
2023/11/19 02:11:07;;;;;;;16.00;8.98;;;4.40;99.90;;;2.86;100.00;100812.09;4912515;28;20039;-85
2023/11/19 02:13:44;;;;;;;21.77;9.25;;;4.40;99.90;;;2.86;100.00;100802.53;4865268;28;20133;-85
2023/11/19 02:16:10;;;;;;;18.23;8.73;;;4.40;99.90;;;2.84;100.00;100793.03;4876695;28;20043;-84
2023/11/19 02:18:36;;;;;;;16.52;8.60;;;4.50;99.90;;;2.93;100.00;100789.47;4879251;28;20517;-84
2023/11/19 02:21:10;;;;;;;18.63;10.30;;;;;;;2.95;100.00;100785.94;4910329;28;20765;-84
2023/11/19 02:23:39;;;;;;;17.38;8.02;;;;;;;2.88;100.00;100769.56;4882418;28;20166;-85
2023/11/19 02:26:29;;;;;;;13.13;7.10;;;;;;;2.86;100.00;100762.69;4928042;28;20127;-83
2023/11/19 02:28:59;;;;;;;15.25;8.90;;;;;;;2.81;100.00;100747.16;4917345;28;20082;-83
2023/11/19 02:31:36;;;;;;;;;;;;;;;;;;;;;
2023/11/19 02:34:05;;;;;;;17.58;10.43;;;4.40;99.90;;;2.90;100.00;100755.69;4890010;28;20050;-83
2023/11/19 02:36:36;;;;;;;16.27;8.32;;;4.40;99.90;;;2.84;100.00;100751.44;4894848;28;20036;-85
2023/11/19 02:39:10;;;;;;;16.80;8.95;;;4.50;99.90;;;2.93;100.00;100756.50;4904575;28;20048;-83
2023/11/19 02:41:50;;;;;;;18.55;8.23;;;4.40;99.90;;;2.94;100.00;100745.22;4895963;28;20047;-83
2023/11/19 02:44:29;;;;;;;18.67;9.45;;;4.50;99.90;;;2.96;100.00;100739.97;4888829;28;20034;-83
2023/11/19 02:47:03;;;;;;;17.70;9.48;;;4.50;99.90;;;2.93;100.00;100727.03;4900975;28;20726;-83
2023/11/19 02:49:28;;;;;;;19.73;10.63;;;4.50;99.90;;;2.94;100.00;100715.72;4966228;28;20088;-82
2023/11/19 02:52:04;;;;;;;18.15;9.85;;;;;;;2.93;100.00;100719.22;4962861;28;20034;-83
2023/11/19 02:54:34;;;;;;;17.95;9.50;;;4.40;99.90;;;2.88;100.00;100714.97;4954833;28;20555;-81
2023/11/19 02:57:03;;;;;;;19.58;9.75;;;4.40;99.90;;;2.82;100.00;100703.78;4947346;28;20058;-81
2023/11/19 02:59:41;;;;;;;16.10;9.15;;;4.40;99.90;;;2.83;100.00;100697.69;4934857;28;20045;-81
2023/11/19 03:02:33;;;;;;;16.80;9.98;;;4.40;99.90;;;2.86;100.00;100679.47;4953669;28;20128;-81
2023/11/19 03:04:59;;;;;;;19.17;10.10;;;4.40;99.90;;;2.88;100.00;100672.50;4890362;28;20087;-81
2023/11/19 03:07:32;;;;;;;17.80;10.18;;;4.40;99.90;;;2.91;100.00;100664.63;4930653;28;20492;-83
2023/11/19 03:09:58;;;;;;;15.93;7.93;;;4.40;99.90;;;2.87;100.00;100660.34;4921832;28;20056;-81
2023/11/19 03:12:26;;;;;;;16.67;9.75;;;;;;;2.85;100.00;100657.81;4902693;28;20634;-82
2023/11/19 03:14:52;;;;;;;20.40;10.38;;;4.40;99.90;;;2.84;100.00;100652.63;4928061;28;20386;-83
2023/11/19 03:17:26;;;;;;;14.70;7.53;;;4.40;99.90;;;2.78;100.00;100643.16;4887803;28;20126;-81
2023/11/19 03:19:52;;;;;;;18.13;10.23;;;4.30;99.90;;;2.75;100.00;100632.81;4907306;28;20096;-81
2023/11/19 03:22:18;;;;;;;15.07;8.70;;;4.30;99.90;;;2.70;100.00;100626.84;4925808;28;20114;-82
2023/11/19 03:24:44;;;;;;;21.83;10.45;;;4.30;99.90;;;2.71;100.00;100625.09;4890540;28;20121;-82
2023/11/19 03:27:10;;;;;;;16.77;9.77;;;4.30;99.90;;;2.74;100.00;100612.03;4970707;28;20207;-82
2023/11/19 03:29:59;;;;;;;17.38;9.65;;;4.30;99.90;;;2.70;100.00;100608.66;4909550;28;20054;-81
2023/11/19 03:32:24;;;;;;;16.33;8.70;;;4.20;99.90;;;2.66;100.00;100596.56;4922819;28;20046;-81
2023/11/19 03:34:51;;;;;;;11.52;5.93;;;;;;;2.64;100.00;100595.75;4900363;28;20046;-81
2023/11/19 03:37:17;;;;;;;17.88;9.18;;;4.20;99.90;;;2.61;100.00;100575.84;4911295;28;20071;-81
2023/11/19 03:39:54;;;;;;;18.17;8.95;;;4.20;99.90;;;2.64;100.00;100561.94;4920684;28;20189;-82
2023/11/19 03:42:30;;;;;;;20.55;8.98;;;4.20;99.90;;;2.59;100.00;100549.03;4970675;28;20693;-81
2023/11/19 03:44:58;;;;;;;15.88;5.50;;;4.20;99.90;;;2.57;100.00;100542.09;5007601;28;20040;-83
2023/11/19 03:47:24;;;;;;;10.60;5.68;;;4.20;99.90;;;2.53;100.00;100543.91;4964273;28;20068;-84
2023/11/19 03:49:56;;;;;;;11.52;6.35;;;;;;;2.49;100.00;100531.00;5004026;28;20051;-82
2023/11/19 03:52:26;;;;;;;12.63;5.90;;;;;;;2.53;100.00;100527.44;5017363;28;20145;-84
2023/11/19 03:55:04;;;;;;;17.25;9.48;;;;;;;2.61;100.00;100510.88;5018320;28;20522;-85
2023/11/19 03:57:30;;;;;;;16.00;7.30;;;4.20;99.90;;;2.59;100.00;100506.56;4992996;28;20044;-81
2023/11/19 03:59:58;;;;;;;8.30;4.60;;;4.10;99.90;;;2.47;100.00;100499.84;4984913;28;20127;-83
2023/11/19 04:02:29;;;;;;;17.13;9.45;;;;;;;2.51;100.00;100496.31;4978412;28;20048;-83
2023/11/19 04:04:58;;;;;;;16.45;8.98;;;;;;;2.59;100.00;100494.44;5005331;28;20043;-83
2023/11/19 04:07:34;;;;;;;;;;;;;;;;;;;;;
2023/11/19 04:10:02;;;;;;;18.10;8.52;;;4.10;99.90;;;2.60;100.00;100492.69;5018157;28;20769;-81
2023/11/19 04:12:28;;;;;;;10.23;5.63;;;4.10;99.90;;;2.56;100.00;100489.28;4993187;28;20036;-81
2023/11/19 04:15:01;;;;;;;16.05;8.85;;;4.10;99.90;;;2.55;100.00;100474.56;4933942;28;20065;-84
2023/11/19 04:17:28;;;;;;;10.57;4.47;;;4.10;99.90;;;2.51;100.00;100469.47;4986058;28;20107;-81
2023/11/19 04:19:56;;;;;;;14.50;7.88;;;4.10;99.90;;;2.54;100.00;100459.84;4948898;28;20047;-81
2023/11/19 04:22:31;;;;;;;17.88;8.00;;;4.10;99.90;;;2.56;100.00;100465.03;4987936;28;20040;-81
2023/11/19 04:24:56;;;;;;;7.10;3.88;;;4.10;99.90;;;2.53;100.00;100465.06;4994137;28;20037;-82
2023/11/19 04:27:22;;;;;;;16.23;8.02;;;4.10;99.90;;;2.55;100.00;100458.97;4952378;28;20045;-82
2023/11/19 04:29:50;;;;;;;19.65;9.50;;;4.10;99.90;;;2.52;100.00;100453.81;4959410;28;20120;-82
2023/11/19 04:32:26;;;;;;;15.43;7.38;;;4.10;99.90;;;2.54;100.00;100454.66;5018381;28;20037;-82
2023/11/19 04:34:52;;;;;;;10.82;5.28;;;4.10;99.90;;;2.50;100.00;100433.94;5027377;28;20939;-82
2023/11/19 04:37:26;;;;;;;14.63;8.07;;;4.10;99.90;;;2.48;100.00;100433.97;5024858;28;20037;-82
2023/11/19 04:39:55;;;;;;;21.88;10.30;;;4.10;99.90;;;2.48;100.00;100428.75;5009250;28;20454;-83
2023/11/19 04:42:29;;;;;;;7.88;3.88;;;4.10;99.90;;;2.43;100.00;100425.41;5038508;28;20044;-81
2023/11/19 04:44:55;;;;;;;7.90;4.50;;;4.10;99.90;;;2.47;100.00;100429.66;4997343;28;20030;-82
2023/11/19 04:47:24;;;;;;;19.08;9.00;;;4.10;99.90;;;2.42;100.00;100401.16;4964819;28;20041;-82
2023/11/19 04:49:58;;;;;;;12.10;6.95;;;4.00;99.90;;;2.39;100.00;100400.34;5029056;28;20025;-81
2023/11/19 04:52:24;;;;;;;25.30;13.38;;;;;;;2.47;100.00;100386.34;4978904;28;20029;-83
2023/11/19 04:54:50;;;;;;;25.48;11.45;;;4.10;99.90;;;2.46;100.00;100384.63;4955305;28;20043;-81
2023/11/19 04:57:17;;;;;;;22.02;12.13;;;4.10;99.90;;;2.42;100.00;100372.59;4976728;28;20116;-81
2023/11/19 04:59:49;;;;;;;23.67;11.75;;;;;;;2.51;100.00;100368.09;4969607;28;20137;-82
2023/11/19 05:02:18;;;;;;;22.95;10.73;;;4.10;99.90;;;2.47;100.00;100367.28;5001125;28;20103;-83
2023/11/19 05:04:51;;;;;;;17.23;6.72;;;4.10;99.90;;;2.45;100.00;100358.66;4959686;28;20048;-83
2023/11/19 05:07:17;;;;;;;21.30;10.05;;;4.10;99.90;;;2.44;100.00;100352.63;4953036;28;20033;-81
2023/11/19 05:09:43;;;;;;;16.85;8.30;;;4.10;99.90;;;2.41;100.00;100351.81;5010598;28;20041;-81
2023/11/19 05:12:12;;;;;;;24.02;11.48;;;4.00;99.90;;;2.42;100.00;100335.34;4924297;28;20154;-82
2023/11/19 05:14:49;;;;;;;30.27;13.68;;;4.00;99.90;;;2.42;100.00;100335.34;4939759;28;20045;-82
2023/11/19 05:17:18;;;;;;;19.73;10.10;;;4.10;99.90;;;2.42;100.00;100327.56;4978549;28;20049;-82
2023/11/19 05:19:50;;;;;;;23.92;11.82;;;4.00;99.90;;;2.47;100.00;100341.31;4998272;28;20170;-83
2023/11/19 05:22:16;;;;;;;23.27;12.70;;;;;;;2.48;100.00;100332.59;5021180;28;20441;-84
2023/11/19 05:24:42;;;;;;;14.25;7.57;;;4.10;99.90;;;2.43;100.00;100339.66;4969648;28;20775;-81
2023/11/19 05:27:08;;;;;;;29.40;15.23;;;4.10;99.90;;;2.44;100.00;100333.56;4975727;28;20052;-82
2023/11/19 05:29:44;;;;;;;11.07;6.45;;;;;;;2.40;100.00;100319.78;4987625;28;20033;-83
2023/11/19 05:32:10;;;;;;;16.98;8.95;;;4.10;99.90;;;2.39;100.00;100307.66;5013227;28;20036;-82
2023/11/19 05:34:36;;;;;;;25.70;14.82;;;4.10;99.90;;;2.44;100.00;100291.97;4990751;28;20107;-81
2023/11/19 05:37:15;;;;;;;22.77;11.85;;;4.00;99.90;;;2.38;100.00;100305.09;4980795;28;20048;-81
2023/11/19 05:39:40;;;;;;;29.15;11.73;;;4.00;99.90;;;2.43;100.00;100308.47;5032080;28;20057;-83
2023/11/19 05:42:27;;;;;;;29.80;14.40;;;4.10;99.90;;;2.47;100.00;100304.91;5011121;23;20152;-81
2023/11/19 05:44:57;;;;;;;24.73;11.60;;;;;;;2.43;100.00;100309.31;4967520;28;20115;-80
2023/11/19 05:47:23;;;;;;;17.92;9.70;;;4.10;99.90;;;2.41;100.00;100307.63;4963194;28;20038;-82
2023/11/19 05:49:49;;;;;;;23.15;12.57;;;4.10;99.90;;;2.45;100.00;100296.28;4929673;28;20578;-81
2023/11/19 05:52:24;;;;;;;27.15;12.48;;;4.10;99.90;;;2.46;100.00;100287.59;4904675;28;20565;-83
2023/11/19 05:54:51;;;;;;;29.88;16.33;;;4.10;99.90;;;2.48;100.00;100291.03;4922458;28;20053;-81
2023/11/19 05:57:29;;;;;;;22.35;12.27;;;;;;;2.45;100.00;100284.16;4977153;28;20096;-81
2023/11/19 05:59:55;;;;;;;19.30;10.85;;;4.00;99.90;;;2.39;100.00;100278.22;5001760;23;20052;-83
2023/11/19 06:02:21;;;;;;;23.75;13.57;;;;;;;2.38;100.00;100263.53;4980800;28;20534;-81
2023/11/19 06:04:56;;;;;;;29.85;15.55;;;4.00;99.90;;;2.43;100.00;100253.91;4970994;28;20088;-81
2023/11/19 06:07:24;;;;;;;25.48;13.18;;;4.00;99.90;;;2.41;100.00;100259.09;4975897;28;20108;-83
2023/11/19 06:10:17;;;;;;;32.03;14.85;;;4.00;99.90;;;2.43;100.00;100241.75;4979316;28;20029;-81
2023/11/19 06:12:57;;;;;;;12.02;5.93;;;4.00;99.90;;;2.37;100.00;100221.09;4841126;28;20039;-83
2023/11/19 06:15:23;;;;;;;24.85;13.93;;;;;;;2.34;100.00;100210.78;4897262;28;20501;-82
2023/11/19 06:17:49;;;;;;;25.23;10.88;;;4.00;99.90;;;2.33;100.00;100200.41;4895440;28;20044;-82
2023/11/19 06:20:41;;;;;;;20.63;10.02;;;;;;;2.33;100.00;100192.59;4906498;28;20043;-82
2023/11/19 06:23:07;;;;;;;13.40;6.65;;;4.00;99.90;;;2.33;100.00;100179.63;4859335;29;20507;-81
2023/11/19 06:25:35;;;;;;;13.02;6.15;;;3.90;99.90;;;2.26;100.00;100184.09;4903077;28;21287;-81
2023/11/19 06:28:07;;;;;;;19.70;11.07;;;3.90;99.90;;;2.29;100.00;100197.03;4878078;28;20048;-82
2023/11/19 06:30:36;;;;;;;21.23;8.73;;;;;;;2.35;100.00;100196.88;4828813;29;20200;-82
2023/11/19 06:33:07;;;;;;;13.23;6.65;;;4.00;99.90;;;2.34;100.00;100207.31;4910744;28;20090;-80
2023/11/19 06:35:40;;;;;;;22.77;12.18;;;3.90;99.90;;;2.31;100.00;100199.56;4823071;29;20039;-83
2023/11/19 06:38:17;;;;;;;30.52;16.25;;;3.90;99.90;;;2.35;100.00;100206.41;4859140;28;20064;-80
2023/11/19 06:40:57;;;;;;;25.45;12.50;;;4.00;99.90;;;2.42;100.00;100213.22;4912681;22;20041;-82
2023/11/19 06:43:23;;;;;;;40.85;11.35;;;4.00;99.90;;;2.38;100.00;100203.78;4934500;28;20058;-83
2023/11/19 06:45:48;;;;;;;25.90;13.85;;;4.00;99.90;;;2.36;100.00;100214.19;4956217;28;20040;-81
2023/11/19 06:48:23;;;;;;;23.45;12.55;;;;;;;2.37;100.00;100215.88;4975323;28;20084;-83
2023/11/19 06:50:49;;;;;;;25.83;13.68;;;4.00;99.90;;;2.39;100.00;100221.06;4986268;28;20549;-82
2023/11/19 06:53:15;;;;;;;32.88;15.85;;;4.00;99.90;;;2.40;100.00;100209.78;4984630;28;20042;-82
2023/11/19 06:55:48;;;;;;;25.13;14.15;;;4.00;99.90;;;2.44;100.00;100208.81;4948773;28;20136;-81
2023/11/19 06:58:17;;;;;;;25.33;12.82;;;;;;;2.44;100.00;100195.81;4916899;28;20041;-83
2023/11/19 07:00:44;;;;;;;20.45;9.48;;;4.00;99.90;;;2.41;100.00;100194.16;4969794;28;20491;-81
2023/11/19 07:03:20;;;;;;;27.33;13.52;;;4.00;99.90;;;2.43;100.00;100194.13;4959141;28;20045;-81
2023/11/19 07:05:48;;;;;;;23.02;11.57;;;4.00;99.90;;;2.39;100.00;100192.47;4957589;28;20096;-81
2023/11/19 07:08:20;;;;;;;28.90;13.85;;;;;;;2.38;100.00;100162.19;4957095;28;20124;-83
2023/11/19 07:10:47;;;;;;;25.52;12.50;;;4.00;99.90;;;2.33;100.00;100143.25;4938518;28;20088;-83
2023/11/19 07:13:13;;;;;;;17.60;8.55;;;3.90;99.90;;;2.32;100.00;100151.94;4961005;28;20312;-82
2023/11/19 07:15:39;;;;;;;23.67;12.80;;;3.90;99.90;;;2.32;100.00;100164.94;4933771;28;20050;-81
2023/11/19 07:18:14;;;;;;;29.55;15.45;;;;;;;2.41;100.00;100172.50;4948673;28;20044;-82
2023/11/19 07:20:40;;;;;;;27.80;12.27;;;4.00;99.90;;;2.42;100.00;100164.69;4956707;23;20685;-82
2023/11/19 07:23:06;;;;;;;28.40;14.20;;;4.00;99.90;;;2.43;100.00;100158.59;4938768;28;20037;-83
2023/11/19 07:25:32;;;;;;;20.30;10.75;;;4.00;99.90;;;2.44;100.00;100136.06;4952841;28;20045;-81
2023/11/19 07:28:07;;;;;;;22.73;11.63;;;4.00;99.90;;;2.47;100.00;100102.22;4984646;28;20102;-82
2023/11/19 07:30:35;;;;;;;14.25;6.25;;;4.00;99.90;;;2.37;100.00;100090.31;4953254;28;20093;-82
2023/11/19 07:33:08;;;;;;;27.13;13.77;;;;;;;2.47;100.00;100095.28;4970945;28;20748;-80
2023/11/19 07:35:36;;;;;;;23.58;13.27;;;4.00;99.90;;;2.46;100.00;100106.56;4939024;28;20064;-83
2023/11/19 07:38:05;;;;;;;23.17;12.27;;;4.10;99.90;;;2.49;100.00;100125.59;4944252;28;20045;-82
2023/11/19 07:40:40;;;;;;;28.55;14.27;;;4.10;99.90;;;2.49;100.00;100142.03;5002561;22;20037;-82
2023/11/19 07:43:08;;;;;;;27.13;11.30;;;4.10;99.90;;;2.53;100.00;100166.19;4960226;28;20073;-82
2023/11/19 07:45:43;;;;;;;25.27;12.52;;;4.10;99.90;;;2.52;100.00;100162.72;4975179;28;20486;-83
2023/11/19 07:48:10;;;;;;;16.58;7.05;;;4.10;99.90;;;2.47;100.00;100174.97;4978992;28;20049;-83
2023/11/19 07:50:36;;;;;;;26.23;13.90;;;;;;;2.49;100.00;100149.81;4960417;28;20071;-81
2023/11/19 07:53:08;;;;;;;22.85;11.23;;;4.10;99.90;;;2.51;100.00;100129.84;4996488;28;20047;-84
2023/11/19 07:55:39;;;;;;;25.48;13.85;;;;;;;2.51;100.00;100142.84;5010392;28;20277;-81
2023/11/19 08:00:57;;;;;;;12.60;4.25;;;;;;;2.50;100.00;100148.91;4961748;23;20041;-82
2023/11/19 08:03:36;;;;;;;14.93;7.82;;;;;;;2.53;100.00;100151.47;4998158;28;20040;-83
2023/11/19 08:06:14;;;;;;;25.83;12.75;;;;;;;2.55;100.00;100147.09;5030129;28;20116;-82
2023/11/19 08:08:40;;;;;;;16.50;9.23;;;4.10;99.90;;;2.58;100.00;100143.56;4998112;28;20032;-83
2023/11/19 08:11:09;;;;;;;23.00;11.75;;;4.10;99.90;;;2.59;100.00;100145.25;5024094;28;20205;-84
2023/11/19 08:13:46;;;;;;;17.05;8.85;;;4.20;99.90;;;2.57;100.00;100129.72;5019004;28;20036;-84
2023/11/19 08:16:14;;;;;;;15.18;7.22;;;;;;;2.60;100.00;100141.78;5003534;28;20068;-83
2023/11/19 08:19:08;;;;;;;20.95;8.82;;;;;;;2.65;100.00;100151.16;5056991;28;20510;-82
2023/11/19 08:21:48;;;;;;;19.45;9.80;;;4.20;99.90;;;2.64;100.00;100133.88;4977714;23;20059;-83
2023/11/19 08:24:29;;;;;;;16.30;8.70;;;;;;;2.61;100.00;100136.56;4942779;28;20033;-83
2023/11/19 08:27:04;;;;;;;16.33;7.28;;;4.20;99.90;;;2.63;100.00;100141.69;4974201;28;20048;-84
2023/11/19 08:29:30;;;;;;;14.52;7.13;;;4.20;99.90;;;2.64;100.00;100140.81;4955496;28;20610;-81
2023/11/19 08:32:06;;;;;;;24.45;13.77;;;4.20;99.90;;;2.69;100.00;100138.09;4959512;28;20120;-82
2023/11/19 08:34:37;;;;;;;20.02;10.45;;;4.30;99.90;;;2.77;100.00;100125.78;4989504;28;20048;-81
2023/11/19 08:37:09;;;;;;;20.38;10.38;;;;;;;2.79;100.00;100122.25;4956127;28;20033;-84
2023/11/19 08:39:37;;;;;;;15.18;8.45;;;4.30;99.90;;;2.77;100.00;100126.63;4967656;28;20385;-84
2023/11/19 08:42:18;;;;;;;14.93;8.27;;;4.30;99.90;;;2.76;100.00;100124.06;4969071;28;20049;-82
2023/11/19 08:44:58;;;;;;;10.95;4.68;;;;;;;2.71;100.00;100105.97;4957298;28;20072;-83
2023/11/19 08:47:53;;;;;;;15.30;8.27;;;4.30;99.90;;;2.72;100.00;100096.41;4990990;28;20028;-83
2023/11/19 08:50:29;;;;;;;12.82;5.95;;;;;;;2.71;100.00;100100.78;4986082;28;20056;-83
2023/11/19 08:52:57;;;;;;;11.90;6.40;;;4.30;99.90;;;2.72;100.00;100099.91;4992192;28;20147;-82
2023/11/19 08:55:38;;;;;;;22.40;8.80;;;4.30;99.90;;;2.73;100.00;100074.75;4960142;28;20029;-83
2023/11/19 08:58:30;;;;;;;18.80;9.40;;;4.40;99.90;;;2.81;100.00;100055.47;4959207;28;20415;-84
2023/11/19 09:00:57;;;;;;;21.40;10.00;;;;;;;2.81;100.00;100058.06;4963521;28;20045;-83
2023/11/19 09:04:06;;;;;;;16.13;8.77;;;;;;;2.84;100.00;100050.16;4933910;28;20049;-83
2023/11/19 09:06:33;;;;;;;13.52;7.10;;;4.40;99.90;;;2.88;100.00;100043.16;4967249;28;20060;-83
2023/11/19 09:09:02;;;;;;;10.55;4.90;;;4.40;99.90;;;2.92;100.00;100034.38;4944244;28;20994;-83
2023/11/19 09:11:50;;;;;;;12.70;7.03;;;;;;;2.94;100.00;100027.41;4915349;28;20046;-80
2023/11/19 09:14:24;;;;;;;19.85;9.02;;;;;;;2.94;100.00;100030.00;4928902;28;20039;-83
2023/11/19 09:17:08;;;;;;;19.67;8.90;;;;;;;2.98;100.00;100039.44;4952459;28;20810;-82
2023/11/19 09:22:20;;;;;;;15.20;6.82;;;4.50;99.90;;;2.98;100.00;100036.84;5001723;23;20045;-84
2023/11/19 09:24:52;;;;;;;13.05;7.03;;;4.50;99.90;;;3.01;100.00;100033.28;5017902;28;20066;-82
2023/11/19 09:27:18;;;;;;;9.55;3.90;;;;;;;2.93;100.00;100024.81;4943248;28;20033;-82
2023/11/19 09:30:04;;;;;;;16.30;6.32;;;4.50;99.90;;;2.94;100.00;100022.19;5010687;28;20037;-83
2023/11/19 09:32:56;;;;;;;8.95;4.53;;;4.50;99.90;;;2.91;100.00;100024.88;4993504;28;20069;-82
2023/11/19 09:35:25;;;;;;;6.47;3.22;;;4.50;99.90;;;2.88;100.00;100017.16;4911457;28;20039;-83
2023/11/19 09:38:01;;;;;;;5.20;2.88;;;4.50;99.90;;;2.94;100.00;100017.00;4887956;28;20047;-83
2023/11/19 09:40:51;;;;;;;7.78;4.35;;;4.50;99.90;;;2.91;100.00;100008.41;4914480;23;20045;-83
2023/11/19 09:43:19;;;;;;;7.35;2.70;;;4.50;99.90;;;2.87;100.00;100005.03;4992266;28;20079;-83
2023/11/19 09:45:59;;;;;;;9.07;4.03;;;4.50;99.90;;;2.91;100.00;100000.63;4948240;28;20064;-82
2023/11/19 09:48:26;;;;;;;8.10;4.07;;;4.50;99.90;;;2.97;100.00;99993.50;5011300;28;20106;-84
2023/11/19 09:51:08;;;;;;;9.23;3.38;;;4.50;99.90;;;2.91;100.00;99985.84;5022584;28;20661;-82
2023/11/19 09:53:43;;;;;;;12.05;4.60;;;4.50;99.90;;;2.95;100.00;99982.28;4956878;28;20038;-84
2023/11/19 09:56:12;;;;;;;6.88;3.15;;;;;;;2.92;100.00;99978.94;5003071;28;20029;-82
2023/11/19 09:58:47;;;;;;;8.90;4.82;;;4.60;99.90;;;2.98;100.00;99978.75;5005599;28;20037;-82
2023/11/19 10:01:14;;;;;;;9.05;4.25;;;4.60;99.90;;;3.03;100.00;99976.88;4978449;28;20040;-83
2023/11/19 10:06:31;;;;;;;5.57;3.20;;;4.60;99.90;;;3.05;100.00;99967.28;4952038;28;20044;-83
2023/11/19 10:08:57;;;;;;;8.95;4.95;;;4.60;99.90;;;3.04;100.00;99945.59;4962596;28;20037;-83
2023/11/19 10:11:49;;;;;;;5.30;2.30;;;4.60;99.90;;;3.01;100.00;99943.09;4956457;28;20046;-83
2023/11/19 10:14:33;;;;;;;;;;;;;;;;;;;;;
2023/11/19 10:17:11;;;;;;;6.03;3.92;;;4.60;99.90;;;3.05;100.00;99933.47;4923287;28;20359;-81
2023/11/19 10:22:29;;;;;;;7.88;4.47;;;4.70;99.90;;;3.13;100.00;99930.63;4992733;23;20045;-82
2023/11/19 10:25:00;;;;;;;7.82;3.53;;;4.70;99.90;;;3.15;100.00;99940.09;4993313;28;20045;-84
2023/11/19 10:27:41;;;;;;;5.78;3.00;;;;;;;3.21;100.00;99933.88;4951443;28;20056;-83
2023/11/19 10:30:49;;;;;;;8.65;4.63;;;4.80;99.90;;;3.32;100.00;99949.19;4972403;28;20179;-83
2023/11/19 10:34:00;;;;;;;7.75;4.40;;;4.80;99.90;;;3.32;100.00;99941.38;4964363;28;20033;-82
2023/11/19 10:36:43;;;;;;;5.57;3.90;;;4.90;99.90;;;3.33;100.00;99933.53;4948059;28;20049;-81
2023/11/19 10:39:20;;;;;;;5.75;2.78;;;;;;;3.27;100.00;99912.91;4907464;28;20074;-82
2023/11/19 10:41:47;;;;;;;4.57;2.72;;;;;;;3.23;100.00;99901.72;4904264;28;20046;-82
2023/11/19 10:44:39;;;;;;;5.65;2.88;;;4.80;99.90;;;3.26;100.00;99906.84;4933437;28;20324;-83
2023/11/19 10:47:19;;;;;;;9.30;4.40;;;4.90;99.90;;;3.33;100.00;99909.28;4934876;28;20044;-83
2023/11/19 10:49:57;;;;;;;9.02;3.97;;;;;;;3.39;100.00;99894.31;4934127;28;20061;-82
2023/11/19 10:52:38;;;;;;;8.00;3.28;;;5.80;99.90;;;3.47;100.00;99900.13;4973535;28;20037;-82
2023/11/19 10:55:32;;;;;;;7.93;3.53;;;5.00;99.90;;;3.52;100.00;99893.91;4925728;28;20093;-82
2023/11/19 10:58:29;;;;;;;6.00;3.28;;;5.10;99.90;;;3.59;100.00;99896.31;4941559;28;20039;-84
2023/11/19 11:01:16;;;;;;;6.20;3.63;;;;;;;3.66;100.00;99899.56;4935852;28;20405;-83
2023/11/19 11:03:54;;;;;;;7.13;3.63;;;5.20;99.90;;;3.72;100.00;99888.97;4960574;28;20046;-83
2023/11/19 11:06:33;;;;;;;6.05;3.33;;;5.20;99.90;;;3.71;100.00;99882.03;4924441;28;20062;-83
2023/11/19 11:09:11;;;;;;;9.60;4.18;;;5.20;99.90;;;3.76;100.00;99882.75;4968931;28;20050;-83
2023/11/19 11:12:09;;;;;;;7.82;4.07;;;5.30;99.90;;;3.82;100.00;99889.50;4959513;28;20038;-83
2023/11/19 11:15:03;;;;;;;7.00;4.32;;;5.60;99.90;;;3.87;100.00;99887.63;4901099;28;20043;-83
2023/11/19 11:17:39;;;;;;;8.60;4.43;;;5.30;99.90;;;3.89;100.00;99884.06;4886804;28;20038;-83
2023/11/19 11:20:09;;;;;;;7.93;4.13;;;;;;;3.96;100.00;99876.06;4932435;28;20036;-84
2023/11/19 11:23:17;;;;;;;6.75;4.22;;;5.40;99.90;;;3.99;100.00;99884.59;4878814;28;20383;-83